Time;durP1;ratioP1;P1;durP2;ratioP2;P2;SDS_P1;SDS_P2;PMS_P1;PMS_P2;Temp;Humidity;BMP_temperature;BMP_pressure;BME280_temperature;BME280_humidity;BME280_pressure;Samples;Min_cycle;Max_cycle;Signal;HPM_P1;HPM_P2
2021/11/12 00:02:15;;;;;;;38.53;22.40;;;;;;;5.96;81.74;100170.97;5061854;28;20237;-82
2021/11/12 00:13:06;;;;;;;37.23;21.37;;;;;;;5.93;81.90;100166.81;5047455;28;20308;-81
2021/11/12 00:15:36;;;;;;;38.40;22.87;;;;;;;5.95;81.77;100169.31;5065954;28;20225;-82
2021/11/12 00:18:08;;;;;;;39.87;22.20;;;;;;;5.81;81.88;100152.25;5048495;28;20633;-83
2021/11/12 00:20:35;;;;;;;40.33;21.87;;;;;;;5.85;82.41;100164.19;5062786;28;20233;-83
2021/11/12 00:23:03;;;;;;;39.83;22.27;;;;;;;5.75;82.79;100156.44;5046025;28;20252;-81
2021/11/12 00:25:33;;;;;;;39.70;22.73;;;;;;;5.74;83.94;100157.44;5046523;28;20225;-81
2021/11/12 00:28:03;;;;;;;38.07;21.90;;;;;;;5.75;83.53;100160.94;5046231;28;20234;-81
2021/11/12 00:38:40;;;;;;;36.00;21.27;;;;;;;5.80;83.44;100161.22;5047090;28;20545;-81
2021/11/12 00:41:33;;;;;;;36.67;21.33;;;;;;;5.75;82.80;100159.09;5061621;28;20560;-82
2021/11/12 00:46:59;;;;;;;38.30;20.97;;;;;;;5.79;83.40;100156.91;5063254;28;20516;-81
2021/11/12 00:49:29;;;;;;;36.90;21.73;;;;;;;5.78;83.37;100164.06;5046287;28;20226;-81
2021/11/12 00:52:00;;;;;;;37.23;20.70;;;;;;;5.88;83.25;100168.38;5047646;28;20255;-80
2021/11/12 00:54:27;;;;;;;39.67;21.10;;;;;;;5.88;82.95;100169.19;5044961;28;20225;-81
2021/11/12 00:56:54;;;;;;;37.37;21.00;;;;;;;5.81;82.83;100154.91;5063188;28;20240;-81
2021/11/12 00:59:21;;;;;;;38.57;20.93;;;;;;;5.78;82.58;100153.41;5045309;28;20224;-81
2021/11/12 01:01:48;;;;;;;36.53;20.50;;;;;;;5.74;83.37;100151.28;5062324;28;20244;-82
2021/11/12 01:04:20;;;;;;;37.57;21.20;;;;;;;5.82;83.03;100167.22;5062519;28;20236;-81
2021/11/12 01:06:49;;;;;;;36.90;20.63;;;;;;;5.84;83.63;100159.03;5047741;28;20327;-81
2021/11/12 01:09:19;;;;;;;36.93;20.57;;;;;;;5.87;83.37;100162.22;5046867;28;20231;-82
2021/11/12 01:11:48;;;;;;;33.13;19.40;;;;;;;5.88;83.61;100153.22;5066012;28;20233;-81
2021/11/12 01:14:20;;;;;;;31.40;18.70;;;;;;;5.88;83.09;100150.56;5047151;28;20221;-82
2021/11/12 01:16:48;;;;;;;33.77;19.47;;;;;;;5.87;82.79;100154.25;5063155;28;20229;-81
2021/11/12 01:19:16;;;;;;;34.83;19.33;;;;;;;5.92;83.60;100154.56;5030501;28;20647;-81
2021/11/12 01:21:44;;;;;;;31.57;18.93;;;;;;;5.83;83.36;100147.59;5046619;28;20232;-81
2021/11/12 01:24:11;;;;;;;31.97;18.60;;;;;;;5.89;83.11;100149.56;5028704;28;20717;-81
2021/11/12 01:26:38;;;;;;;33.17;20.03;;;;;;;5.86;83.12;100139.25;5047191;28;20226;-83
2021/11/12 01:29:05;;;;;;;37.00;19.47;;;;;;;5.92;82.80;100137.75;5044892;28;20236;-81
2021/11/12 01:31:33;;;;;;;35.23;20.40;;;;;;;5.92;82.37;100141.25;5030469;28;20200;-83
2021/11/12 01:34:12;;;;;;;36.27;20.67;;;;;;;5.94;83.05;100149.88;5030170;28;20308;-81
2021/11/12 01:36:59;;;;;;;37.77;20.97;;;;;;;5.89;83.07;100140.75;5062773;28;20520;-81
2021/11/12 01:39:27;;;;;;;37.57;22.10;;;;;;;5.90;82.84;100151.22;5061338;28;20217;-81
2021/11/12 01:41:59;;;;;;;39.40;23.23;;;;;;;5.82;82.78;100135.31;5064506;28;20256;-80
2021/11/12 01:44:39;;;;;;;39.23;24.00;;;;;;;5.84;82.57;100138.59;5045883;28;20232;-82
2021/11/12 01:48:14;;;;;;;42.73;22.80;;;;;;;5.83;82.48;100133.47;5046491;28;20237;-80
2021/11/12 01:50:15;;;;;;;38.53;21.93;;;;;;;5.88;82.52;100139.13;5054123;28;20221;-81
2021/11/12 01:52:46;;;;;;;40.30;22.40;;;;;;;5.87;82.71;100143.63;5061531;28;20228;-81
2021/11/12 01:56:10;;;;;;;39.07;21.57;;;;;;;5.84;82.88;100135.09;5062250;28;20262;-82
2021/11/12 01:58:26;;;;;;;36.03;21.30;;;;;;;5.80;83.02;100139.13;5042778;28;20354;-81
2021/11/12 02:00:52;;;;;;;39.67;22.30;;;;;;;5.74;83.19;100122.88;5061729;28;20254;-82
2021/11/12 02:03:20;;;;;;;40.43;23.13;;;;;;;5.81;83.27;100130.97;5046348;28;20275;-81
2021/11/12 02:05:47;;;;;;;41.20;22.70;;;;;;;5.83;83.31;100122.84;5028965;28;20240;-81
2021/11/12 02:08:14;;;;;;;38.20;22.00;;;;;;;5.75;83.25;100118.38;5014788;28;20225;-81
2021/11/12 02:10:42;;;;;;;38.77;22.20;;;;;;;5.77;81.76;100132.34;5025691;28;20225;-81
2021/11/12 02:13:16;;;;;;;38.03;20.80;;;;;;;6.04;81.84;100133.66;5026500;28;20226;-81
2021/11/12 02:15:45;;;;;;;37.03;22.17;;;;;;;5.84;81.83;100117.31;5045168;28;20229;-81
2021/11/12 02:18:25;;;;;;;39.77;22.00;;;;;;;5.78;81.90;100120.72;5027976;28;20268;-81
2021/11/12 02:26:27;;;;;;;40.23;21.87;;;;;;;5.69;84.12;100119.91;5030157;28;20230;-81
2021/11/12 02:29:09;;;;;;;40.17;22.53;;;;;;;5.63;83.70;100109.19;5030894;28;20279;-81
2021/11/12 02:31:40;;;;;;;39.40;22.53;;;;;;;5.60;84.09;100102.38;5062078;28;20229;-81
2021/11/12 02:34:14;;;;;;;44.60;23.03;;;;;;;5.62;84.25;100110.16;5060877;28;20249;-81
2021/11/12 02:36:41;;;;;;;43.20;24.00;;;;;;;5.63;84.07;100109.19;5061355;28;20659;-81
2021/11/12 02:39:11;;;;;;;39.70;22.17;;;;;;;5.71;84.46;100111.78;5061197;28;20284;-81
2021/11/12 02:41:40;;;;;;;38.97;22.63;;;;;;;5.75;84.30;100111.25;5059263;28;20217;-81
2021/11/12 02:44:08;;;;;;;39.63;22.90;;;;;;;5.70;84.39;100105.63;5062035;28;20528;-81
2021/11/12 02:46:36;;;;;;;41.57;23.00;;;;;;;5.78;84.54;100107.41;5043817;28;20514;-81
2021/11/12 02:49:04;;;;;;;43.67;23.60;;;;;;;5.76;84.34;100112.06;5025686;28;20233;-81
2021/11/12 02:51:34;;;;;;;39.50;23.27;;;;;;;5.76;84.46;100110.25;5044974;28;20297;-81
2021/11/12 02:54:04;;;;;;;40.70;22.20;;;;;;;5.68;84.74;100105.00;5046089;28;20229;-80
2021/11/12 02:56:32;;;;;;;39.07;21.80;;;;;;;5.79;84.29;100117.03;5062027;28;20533;-81
2021/11/12 02:59:05;;;;;;;44.30;23.27;;;;;;;5.79;83.97;100109.06;5060776;28;20315;-81
2021/11/12 03:01:35;;;;;;;43.50;23.63;;;;;;;5.79;84.16;100106.38;5062742;28;20229;-82
2021/11/12 03:04:05;;;;;;;41.90;22.77;;;;;;;5.80;83.85;100113.38;5058757;28;20228;-81
2021/11/12 03:06:34;;;;;;;44.13;23.33;;;;;;;5.78;83.92;100110.88;5063450;28;20227;-81
2021/11/12 03:09:03;;;;;;;42.90;23.20;;;;;;;5.74;84.25;100109.56;5058957;28;20240;-81
2021/11/12 03:11:31;;;;;;;36.30;20.53;;;;;;;5.73;83.97;100112.44;5044286;28;20244;-81
2021/11/12 03:13:58;;;;;;;42.03;22.20;;;;;;;5.69;84.24;100109.28;5061351;28;20233;-83
2021/11/12 03:16:25;;;;;;;38.87;22.70;;;;;;;5.68;83.94;100109.47;5043451;28;20241;-81
2021/11/12 03:18:52;;;;;;;39.77;22.53;;;;;;;5.78;83.92;100115.41;5029214;28;20239;-83
2021/11/12 03:21:22;;;;;;;38.23;21.07;;;;;;;5.83;83.69;100113.03;5041843;28;20225;-81
2021/11/12 03:24:03;;;;;;;35.80;19.90;;;;;;;5.68;83.96;100105.00;5045566;28;20225;-82
2021/11/12 04:02:31;;;;;;;33.63;18.63;;;;;;;5.83;84.01;100120.19;5063429;28;20228;-83
2021/11/12 04:49:23;;;;;;;35.37;18.27;;;;;;;5.56;85.12;100102.88;5075060;28;20319;-82
2021/11/12 04:49:28;;;;;;;35.77;18.97;;;;;;;5.51;85.14;100090.13;5088215;28;20209;-81
2021/11/12 05:13:54;;;;;;;28.00;15.40;;;;;;;5.48;85.34;100079.03;5085839;28;20297;-81
2021/11/12 05:44:45;;;;;;;19.87;10.83;;;;;;;5.60;84.64;100094.38;5026283;28;20265;-81
2021/11/12 05:50:14;;;;;;;19.83;11.67;;;;;;;5.62;84.46;100084.41;5024287;28;20222;-80
2021/11/12 05:55:29;;;;;;;18.57;11.43;;;;;;;5.57;84.66;100081.47;5022759;28;20230;-80
2021/11/12 05:57:58;;;;;;;15.70;11.17;;;;;;;5.61;84.17;100095.22;5024434;28;20237;-81
2021/11/12 06:00:26;;;;;;;16.97;10.53;;;;;;;5.59;84.43;100091.94;5024395;28;20230;-81
2021/11/12 06:03:17;;;;;;;16.40;10.30;;;;;;;5.66;83.98;100096.34;5029996;23;20248;-82
2021/11/12 06:05:48;;;;;;;17.67;10.93;;;;;;;5.58;84.52;100095.59;5031617;28;20649;-81
2021/11/12 06:08:16;;;;;;;15.60;10.30;;;;;;;5.57;84.22;100092.09;5048636;28;20214;-82
2021/11/12 06:10:50;;;;;;;16.87;10.47;;;;;;;5.62;83.95;100107.50;5045931;28;20279;-81
2021/11/12 06:13:17;;;;;;;17.20;9.87;;;;;;;5.58;84.16;100099.06;5060964;22;20292;-81
2021/11/12 06:15:48;;;;;;;15.37;10.50;;;;;;;5.63;83.91;100102.03;5066890;28;20231;-81
2021/11/12 06:18:37;;;;;;;17.80;11.00;;;;;;;5.63;84.53;100102.03;5070196;28;20256;-82
2021/11/12 06:21:05;;;;;;;17.03;11.27;;;;;;;5.52;84.35;100085.66;5067678;28;20224;-82
2021/11/12 06:23:32;;;;;;;16.03;10.53;;;;;;;5.70;83.87;100110.09;5065940;28;20237;-81
2021/11/12 06:25:58;;;;;;;16.90;10.57;;;;;;;5.67;83.68;100116.63;5030638;28;20240;-81
2021/11/12 06:28:25;;;;;;;17.17;10.90;;;;;;;5.61;83.74;100104.03;5028260;28;20636;-80
2021/11/12 06:30:56;;;;;;;16.57;10.70;;;;;;;5.67;84.09;100119.28;5044392;28;20233;-81
2021/11/12 06:33:23;;;;;;;18.13;10.80;;;;;;;5.66;82.87;100112.31;5044888;28;20256;-81
2021/11/12 06:35:50;;;;;;;16.30;10.37;;;;;;;5.65;83.54;100120.44;5031271;28;20241;-82
2021/11/12 06:38:20;;;;;;;15.57;10.30;;;;;;;5.64;83.80;100122.31;5029962;28;20221;-81
2021/11/12 06:40:51;;;;;;;15.27;10.47;;;;;;;5.66;83.45;100122.09;5035424;28;20220;-81
2021/11/12 06:43:25;;;;;;;17.50;10.33;;;;;;;5.70;83.36;100126.06;5070505;22;20289;-81
2021/11/12 06:51:37;;;;;;;15.50;10.27;;;;;;;5.78;82.78;100127.84;5025476;28;20227;-81
2021/11/12 06:54:06;;;;;;;14.07;9.50;;;;;;;5.74;82.84;100124.69;5029774;28;20502;-81
2021/11/12 06:56:36;;;;;;;15.03;9.87;;;;;;;5.66;82.94;100124.75;5030129;28;20222;-81
2021/11/12 06:59:06;;;;;;;14.13;9.30;;;;;;;5.79;83.22;100138.28;5058762;23;20251;-81
2021/11/12 07:01:53;;;;;;;16.00;9.73;;;;;;;5.78;83.41;100126.81;5097767;22;20232;-80
2021/11/12 07:04:24;;;;;;;12.70;8.90;;;;;;;5.75;82.93;100115.72;5089900;28;20279;-81
2021/11/12 07:06:53;;;;;;;14.20;8.90;;;;;;;5.83;82.76;100130.81;5087795;28;20292;-81
2021/11/12 07:09:22;;;;;;;12.03;8.87;;;;;;;5.86;83.23;100125.13;5085981;28;20231;-81
2021/11/12 07:11:50;;;;;;;13.57;9.03;;;;;;;5.91;82.73;100128.13;5084097;28;20220;-81
2021/11/12 07:14:18;;;;;;;15.70;9.37;;;;;;;5.89;82.72;100122.97;5068322;28;20254;-80
2021/11/12 07:16:47;;;;;;;13.63;9.27;;;;;;;5.89;82.96;100122.97;5076194;28;20228;-81
2021/11/12 07:19:27;;;;;;;14.67;10.30;;;;;;;6.05;82.44;100122.03;5096276;28;20554;-81
2021/11/12 07:22:04;;;;;;;14.23;9.63;;;;;;;6.00;82.24;100122.56;5095575;28;20228;-81
2021/11/12 07:24:48;;;;;;;15.73;10.67;;;;;;;6.01;81.30;100120.75;5095879;28;20298;-81
2021/11/12 07:27:27;;;;;;;16.57;10.30;;;;;;;6.04;82.13;100134.50;5079797;28;20299;-81
2021/11/12 07:30:15;;;;;;;14.43;9.63;;;;;;;6.05;81.17;100136.16;5101146;22;20666;-81
2021/11/12 07:32:51;;;;;;;16.23;10.53;;;;;;;6.09;81.28;100133.97;5076407;28;20212;-82
2021/11/12 07:38:27;;;;;;;14.77;9.77;;;;;;;6.15;81.02;100135.91;5063557;23;20226;-82
2021/11/12 07:47:13;;;;;;;13.70;9.23;;;;;;;6.18;80.78;100146.19;5085659;28;20607;-82
2021/11/12 07:49:48;;;;;;;14.37;10.47;;;;;;;6.16;80.48;100145.53;5074008;28;20254;-82
2021/11/12 07:52:27;;;;;;;14.67;9.90;;;;;;;6.23;80.34;100150.97;5120665;22;20224;-82
2021/11/12 07:54:58;;;;;;;16.03;10.40;;;;;;;6.19;80.54;100137.22;5018021;28;20257;-81
2021/11/12 07:57:27;;;;;;;16.47;10.53;;;;;;;6.22;80.24;100136.84;5026193;28;20232;-81
2021/11/12 08:00:06;;;;;;;15.60;10.97;;;;;;;6.27;80.22;100149.63;5033044;28;20240;-81
2021/11/12 08:02:38;;;;;;;18.80;10.77;;;;;;;6.13;79.80;100124.63;5033172;28;20262;-81
2021/11/12 08:06:12;;;;;;;14.23;9.67;;;;;;;6.29;79.47;100137.81;5072069;23;20238;-81
2021/11/12 08:08:51;;;;;;;16.67;11.23;;;;;;;6.31;79.73;100151.72;5113190;28;20228;-81
2021/11/12 08:11:31;;;;;;;17.37;12.17;;;;;;;6.26;78.99;100132.81;5093627;28;20289;-81
2021/11/12 08:14:25;;;;;;;20.47;13.73;;;;;;;6.34;79.24;100142.59;5113230;23;20254;-81
2021/11/12 08:17:13;;;;;;;17.77;11.67;;;;;;;6.32;78.56;100137.44;5095778;28;20238;-81
2021/11/12 08:20:02;;;;;;;16.83;11.40;;;;;;;6.29;79.26;100128.97;5111899;28;20220;-83
2021/11/12 08:23:15;;;;;;;16.57;10.87;;;;;;;6.35;79.48;100129.06;5115330;28;20228;-81
2021/11/12 08:29:17;;;;;;;18.67;12.37;;;;;;;6.46;78.85;100141.97;5032022;28;20195;-80
2021/11/12 08:35:06;;;;;;;17.30;11.27;;;;;;;6.37;79.21;100127.06;4993119;28;20229;-82
2021/11/12 08:37:59;;;;;;;17.00;10.93;;;;;;;6.41;78.83;100138.19;5087518;23;20246;-81
2021/11/12 08:43:29;;;;;;;14.63;10.00;;;;;;;6.40;79.39;100133.84;5113382;28;20643;-81
2021/11/12 08:51:27;;;;;;;15.80;10.57;;;;;;;6.65;78.83;100129.97;5120874;22;20231;-81
2021/11/12 08:53:58;;;;;;;16.50;10.93;;;;;;;6.75;78.23;100138.50;5074347;28;20213;-80
2021/11/12 08:56:30;;;;;;;15.80;10.67;;;;;;;6.77;78.37;100141.81;5087591;28;20203;-80
2021/11/12 08:59:00;;;;;;;16.13;10.30;;;;;;;6.80;78.08;100140.63;5095316;28;20188;-81
2021/11/12 09:01:29;;;;;;;16.77;10.30;;;;;;;6.69;77.48;100122.44;5093409;28;20575;-81
2021/11/12 09:04:02;;;;;;;16.33;10.63;;;;;;;6.89;77.67;100143.03;5095048;23;20229;-82
2021/11/12 09:06:29;;;;;;;16.80;10.10;;;;;;;6.96;77.62;100135.94;5072099;28;20449;-81
2021/11/12 09:09:11;;;;;;;14.67;10.33;;;;;;;6.85;77.24;100136.41;5075173;28;20224;-82
2021/11/12 09:11:39;;;;;;;13.23;9.40;;;;;;;6.89;77.27;100142.19;5081574;28;20233;-81
2021/11/12 09:14:26;;;;;;;19.23;16.47;;;;;;;6.89;76.80;100134.22;5081317;23;20277;-81
2021/11/12 09:17:08;;;;;;;15.30;10.80;;;;;;;6.90;75.96;100133.19;5093098;28;20261;-81
2021/11/12 09:20:19;;;;;;;15.07;10.53;;;;;;;6.90;76.94;100133.19;5097313;28;20213;-81
2021/11/12 09:22:54;;;;;;;14.63;9.33;;;;;;;6.78;77.15;100106.19;5063378;23;20242;-81
2021/11/12 09:25:25;;;;;;;16.53;10.13;;;;;;;6.96;77.22;100130.59;5099095;23;20224;-81
2021/11/12 09:28:07;;;;;;;15.53;9.83;;;;;;;6.91;77.90;100125.00;5093211;28;20242;-82
2021/11/12 09:30:47;;;;;;;17.13;9.73;;;;;;;6.92;77.14;100121.34;5103759;28;20225;-81
2021/11/12 09:33:32;;;;;;;14.43;9.93;;;;;;;7.00;76.94;100117.75;5055860;23;20665;-81
2021/11/12 09:36:02;;;;;;;15.77;10.77;;;;;;;7.01;77.46;100114.06;5051866;23;20240;-80
2021/11/12 09:38:51;;;;;;;15.27;10.63;;;;;;;6.93;77.45;100101.69;5094580;22;20236;-80
2021/11/12 09:41:24;;;;;;;18.17;10.97;;;;;;;7.00;76.94;100121.22;5076106;28;20222;-80
2021/11/12 09:44:02;;;;;;;18.90;11.33;;;;;;;6.89;77.27;100102.25;5073688;28;20215;-81
2021/11/12 09:47:22;;;;;;;17.60;11.13;;;;;;;6.85;77.32;100107.13;5079124;28;20260;-84
2021/11/12 09:50:39;;;;;;;15.63;10.70;;;;;;;6.91;77.75;100108.19;5096688;23;20224;-81
2021/11/12 09:53:33;;;;;;;16.03;11.40;;;;;;;7.03;77.11;100093.41;5106977;28;20216;-80
2021/11/12 09:56:22;;;;;;;15.93;10.93;;;;;;;7.19;76.86;100100.34;5108414;28;20246;-82
2021/11/12 09:59:11;;;;;;;16.27;11.63;;;;;;;7.26;75.98;100094.13;5105054;28;20232;-82
2021/11/12 10:01:52;;;;;;;15.13;11.47;;;;;;;7.27;75.88;100089.63;5107441;28;20245;-82
2021/11/12 10:04:25;;;;;;;13.63;10.50;;;;;;;7.28;76.15;100086.75;5101517;28;20213;-81
2021/11/12 10:06:58;;;;;;;14.30;10.37;;;;;;;7.29;75.91;100076.91;5090946;23;20278;-81
2021/11/12 10:09:27;;;;;;;14.93;11.50;;;;;;;7.29;75.54;100063.59;5071101;23;20194;-82
2021/11/12 10:12:02;;;;;;;15.07;10.53;;;;;;;7.28;75.26;100046.75;5067150;28;20214;-84
2021/11/12 10:14:51;;;;;;;13.07;10.73;;;;;;;7.35;75.39;100046.84;5082356;23;20230;-81
2021/11/12 10:17:28;;;;;;;14.40;10.67;;;;;;;7.48;74.85;100055.81;5050203;28;20221;-81
2021/11/12 10:20:00;;;;;;;13.47;10.97;;;;;;;7.50;74.69;100047.63;5033265;28;20226;-81
2021/11/12 10:22:51;;;;;;;11.17;9.63;;;;;;;7.53;74.46;100047.25;5050013;28;20226;-81
2021/11/12 10:25:21;;;;;;;13.83;10.63;;;;;;;7.44;74.39;100045.72;5049107;28;20218;-81
2021/11/12 10:27:51;;;;;;;15.33;12.13;;;;;;;7.49;73.91;100043.31;5045254;28;20188;-82
2021/11/12 10:30:25;;;;;;;15.50;12.50;;;;;;;7.44;74.56;100048.38;5046443;28;20241;-82
2021/11/12 10:32:58;;;;;;;13.57;11.80;;;;;;;7.47;73.54;100040.81;5032396;28;20209;-81
2021/11/12 10:35:31;;;;;;;13.87;11.73;;;;;;;7.38;74.39;100041.13;5028080;28;20237;-83
2021/11/12 10:38:12;;;;;;;14.47;11.50;;;;;;;7.38;75.03;100038.47;5036914;28;20220;-83
2021/11/12 10:40:44;;;;;;;14.47;11.10;;;;;;;7.33;74.88;100023.03;5048298;28;20235;-81
2021/11/12 10:43:28;;;;;;;13.70;11.70;;;;;;;7.34;74.33;100032.69;5096115;23;20224;-80
2021/11/12 10:46:11;;;;;;;16.97;12.23;;;;;;;7.29;74.60;100026.25;5102851;28;20231;-81
2021/11/12 10:48:39;;;;;;;14.60;11.57;;;;;;;7.20;74.38;100030.06;5095616;28;20288;-83
2021/11/12 10:51:30;;;;;;;13.93;10.77;;;;;;;7.20;74.52;100022.06;5079726;28;20235;-82
2021/11/12 10:53:58;;;;;;;15.13;11.93;;;;;;;7.25;74.67;100030.31;5092090;28;20254;-82
2021/11/12 10:56:49;;;;;;;15.97;12.47;;;;;;;7.26;75.05;100021.31;5100738;28;20227;-81
2021/11/12 10:59:18;;;;;;;14.30;11.50;;;;;;;7.22;75.08;100012.88;5095966;28;20243;-80
2021/11/12 11:01:48;;;;;;;11.90;10.10;;;;;;;7.21;75.33;100002.41;5087394;28;20236;-81
2021/11/12 11:04:21;;;;;;;12.77;9.93;;;;;;;7.22;73.85;100001.41;5068669;28;20236;-82
2021/11/12 11:06:50;;;;;;;13.07;10.47;;;;;;;7.27;73.98;99997.16;5108237;23;20230;-82
2021/11/12 11:09:20;;;;;;;13.90;11.67;;;;;;;7.26;74.48;99995.50;5090163;28;20230;-83
2021/11/12 11:11:49;;;;;;;14.57;11.13;;;;;;;7.28;74.16;99993.47;5073647;28;20223;-83
2021/11/12 11:14:47;;;;;;;13.13;10.80;;;;;;;7.21;73.54;99983.75;5107525;28;20227;-82
2021/11/12 11:17:27;;;;;;;16.23;12.97;;;;;;;7.34;73.86;99984.72;5091005;28;20304;-80
2021/11/12 11:20:25;;;;;;;15.97;12.77;;;;;;;7.31;74.11;99982.44;5108731;28;20220;-83
2021/11/12 11:23:00;;;;;;;14.23;12.10;;;;;;;7.22;73.72;99975.59;5091471;28;20557;-81
2021/11/12 11:25:31;;;;;;;15.70;12.53;;;;;;;7.24;74.55;99980.69;5092179;28;20253;-81
2021/11/12 11:27:59;;;;;;;13.20;11.63;;;;;;;7.25;74.11;99975.19;5107917;28;20232;-81
2021/11/12 11:30:28;;;;;;;14.83;11.73;;;;;;;7.18;74.69;99973.47;5074376;28;20228;-83
2021/11/12 11:33:02;;;;;;;16.93;12.60;;;;;;;7.23;74.72;99968.41;5116006;22;20270;-81
2021/11/12 11:35:30;;;;;;;15.60;13.47;;;;;;;7.24;74.91;99962.03;5072858;28;20234;-83
2021/11/12 11:37:57;;;;;;;16.37;12.73;;;;;;;7.09;74.29;99936.28;5096730;28;20666;-80
2021/11/12 11:40:24;;;;;;;14.73;12.43;;;;;;;7.15;74.88;99940.03;5051115;28;20228;-83
2021/11/12 11:42:53;;;;;;;17.13;13.83;;;;;;;7.25;75.47;99948.53;5086875;28;20578;-83
2021/11/12 11:45:20;;;;;;;16.20;12.47;;;;;;;7.22;75.24;99943.59;5069700;28;20229;-83
2021/11/12 11:47:47;;;;;;;15.43;13.13;;;;;;;7.32;74.74;99953.94;5078619;28;20287;-81
2021/11/12 11:50:26;;;;;;;17.33;14.33;;;;;;;7.33;74.48;99958.25;5044022;28;20244;-82
2021/11/12 11:53:33;;;;;;;15.77;13.60;;;;;;;7.37;74.04;99952.34;5099592;28;20228;-82
2021/11/12 11:56:30;;;;;;;18.67;14.27;;;;;;;7.33;74.86;99940.41;5095685;28;20279;-84
2021/11/12 11:59:21;;;;;;;19.00;14.60;;;;;;;7.20;74.51;99921.63;5074460;28;20216;-82
2021/11/12 12:01:50;;;;;;;18.97;15.50;;;;;;;7.30;75.42;99934.63;5107719;28;20231;-82
2021/11/12 12:04:19;;;;;;;19.63;14.80;;;;;;;7.34;74.99;99936.72;5072732;23;20270;-80
2021/11/12 12:07:01;;;;;;;20.23;14.77;;;;;;;7.39;74.64;99928.16;5089589;28;20635;-81
2021/11/12 12:10:00;;;;;;;18.00;14.70;;;;;;;7.39;75.28;99922.81;5069457;28;20237;-83
2021/11/12 12:12:31;;;;;;;19.63;15.07;;;;;;;7.41;74.50;99912.81;5069729;28;20256;-81
2021/11/12 12:15:09;;;;;;;21.17;15.53;;;;;;;7.36;75.10;99905.38;5070482;28;20229;-84
2021/11/12 12:17:48;;;;;;;20.47;15.03;;;;;;;7.40;74.42;99905.81;5070225;28;20209;-83
2021/11/12 13:25:54;;;;;;;25.03;19.33;;;;;;;7.29;76.66;99842.38;5087540;28;20238;-81
2021/11/12 13:28:34;;;;;;;25.40;20.53;;;;;;;7.37;76.68;99860.91;5069527;28;20284;-83
2021/11/12 13:31:14;;;;;;;29.43;21.93;;;;;;;7.35;77.14;99855.75;5069976;28;20182;-82
2021/11/12 13:33:49;;;;;;;30.77;21.80;;;;;;;7.34;77.29;99866.59;5079243;23;20250;-81
2021/11/12 13:36:28;;;;;;;26.83;20.67;;;;;;;7.33;77.08;99864.94;5070222;28;20536;-82
2021/11/12 13:39:17;;;;;;;27.97;20.43;;;;;;;7.29;76.81;99859.19;5072415;28;20664;-81
2021/11/12 13:42:02;;;;;;;30.10;21.77;;;;;;;7.27;77.49;99839.91;5067752;28;20225;-80
2021/11/12 13:44:32;;;;;;;29.80;21.97;;;;;;;7.37;77.08;99852.91;5068482;28;20212;-83
2021/11/12 13:47:16;;;;;;;30.30;21.53;;;;;;;7.35;77.29;99852.25;5069192;28;20233;-81
2021/11/12 13:49:53;;;;;;;31.37;22.37;;;;;;;7.34;76.76;99850.59;5068161;28;20232;-81
2021/11/12 13:52:33;;;;;;;32.63;22.80;;;;;;;7.34;77.55;99850.59;5068831;28;20223;-82
2021/11/12 13:55:11;;;;;;;29.53;21.43;;;;;;;7.26;76.30;99824.94;5067676;28;20229;-82
2021/11/12 13:57:55;;;;;;;32.47;23.03;;;;;;;7.36;76.66;99840.59;5067292;28;20296;-83
2021/11/12 14:00:26;;;;;;;46.37;35.20;;;;;;;7.39;76.39;99841.03;5066662;28;20260;-81
2021/11/12 14:03:04;;;;;;;31.53;23.57;;;;;;;7.38;76.03;99841.19;5051296;28;20221;-81
2021/11/12 14:05:32;;;;;;;45.93;31.47;;;;;;;7.29;76.02;99840.53;5083876;28;20230;-82
2021/11/12 14:08:05;;;;;;;37.03;26.50;;;;;;;7.29;76.56;99842.38;5067396;28;20308;-83
2021/11/12 14:10:36;;;;;;;31.63;24.47;;;;;;;7.28;76.69;99828.22;5067128;28;20300;-82
2021/11/12 14:13:06;;;;;;;31.40;24.13;;;;;;;7.21;76.98;99824.69;5049996;28;20259;-81
2021/11/12 14:15:57;;;;;;;31.67;23.83;;;;;;;7.25;77.01;99827.78;5049407;28;20237;-83
2021/11/12 14:21:31;;;;;;;29.73;22.43;;;;;;;7.18;77.56;99832.25;5086982;28;20267;-81
2021/11/12 14:33:36;;;;;;;33.40;24.90;;;;;;;7.17;77.51;99809.28;5086853;28;20227;-82
2021/11/12 14:35:59;;;;;;;30.73;21.97;;;;;;;7.07;77.73;99813.09;5084942;28;20246;-83
2021/11/12 14:38:36;;;;;;;33.97;23.00;;;;;;;7.14;77.98;99815.00;5074900;28;20228;-80
2021/11/12 14:47:20;;;;;;;31.23;25.00;;;;;;;7.14;78.12;99813.13;5066762;28;20212;-82
2021/11/12 14:49:48;;;;;;;33.70;25.03;;;;;;;7.23;77.71;99811.97;5085089;28;20220;-82
2021/11/12 14:52:23;;;;;;;37.30;26.07;;;;;;;7.18;77.29;99814.44;5068616;28;20345;-82
2021/11/12 14:55:09;;;;;;;33.07;22.67;;;;;;;7.09;76.99;99795.06;5069616;28;20250;-83
2021/11/12 14:57:42;;;;;;;31.83;23.17;;;;;;;7.12;77.40;99809.84;5071796;28;20686;-81
2021/11/12 15:00:18;;;;;;;34.97;24.77;;;;;;;7.09;78.17;99808.38;5069725;28;20565;-82
2021/11/12 15:02:50;;;;;;;33.33;24.10;;;;;;;7.07;78.00;99807.78;5087252;28;20240;-81
2021/11/12 15:05:17;;;;;;;34.70;25.20;;;;;;;7.14;77.75;99820.34;5069084;28;20236;-82
2021/11/12 15:08:12;;;;;;;37.67;26.47;;;;;;;7.01;77.99;99811.19;5076684;22;20319;-83
2021/11/12 15:10:33;;;;;;;34.90;24.47;;;;;;;6.94;78.50;99812.16;5083579;28;20224;-82
2021/11/12 15:13:01;;;;;;;34.73;24.50;;;;;;;6.94;78.77;99813.00;5052940;28;20232;-82
2021/11/12 15:15:28;;;;;;;36.53;25.77;;;;;;;6.97;79.11;99807.28;5069231;28;20337;-82
2021/11/12 15:18:04;;;;;;;35.83;24.20;;;;;;;7.02;79.36;99807.53;5054630;28;20320;-83
2021/11/12 15:20:39;;;;;;;46.30;36.03;;;;;;;6.96;79.90;99794.97;5087598;28;20242;-83
2021/11/12 15:29:06;;;;;;;32.87;25.10;;;;;;;7.00;78.42;99801.56;5053210;28;20326;-82
2021/11/12 15:34:18;;;;;;;32.90;25.03;;;;;;;7.11;78.57;99807.38;5087249;28;20284;-83
2021/11/12 15:42:45;;;;;;;34.63;24.47;;;;;;;7.02;77.33;99786.22;5075117;28;20248;-82
2021/11/12 15:48:18;;;;;;;33.30;25.40;;;;;;;7.07;77.76;99794.44;5018357;28;20219;-83
2021/11/12 16:12:44;;;;;;;34.70;24.03;;;;;;;6.91;77.15;99799.22;5083951;28;20307;-82
2021/11/12 16:25:53;;;;;;;35.27;25.13;;;;;;;6.80;76.97;99787.25;5074255;28;20644;-83
2021/11/12 16:28:21;;;;;;;37.63;27.03;;;;;;;6.85;76.99;99797.34;5070478;28;20236;-82
2021/11/12 16:30:59;;;;;;;37.13;25.80;;;;;;;6.93;76.92;99805.19;5055106;28;20255;-82
2021/11/12 16:33:29;;;;;;;38.33;27.03;;;;;;;6.87;77.67;99805.94;5088589;28;20225;-83
2021/11/12 16:36:01;;;;;;;43.83;30.33;;;;;;;6.83;77.44;99810.00;5052292;28;20234;-81
2021/11/12 16:38:34;;;;;;;53.07;38.27;;;;;;;6.89;77.66;99812.75;5087133;28;20227;-81
2021/11/12 16:41:11;;;;;;;53.20;38.83;;;;;;;6.81;78.24;99806.72;5068110;28;20259;-82
2021/11/12 16:47:08;;;;;;;49.43;35.63;;;;;;;6.81;77.50;99809.41;5067321;28;20247;-82
2021/11/12 16:49:16;;;;;;;59.30;41.20;;;;;;;6.77;78.02;99803.59;5041475;28;20229;-82
2021/11/12 16:54:30;;;;;;;49.60;32.67;;;;;;;6.73;77.87;99790.84;5051064;28;20225;-80
2021/11/12 17:02:27;;;;;;;38.73;27.03;;;;;;;6.58;78.39;99790.91;5032246;28;20312;-83
2021/11/12 17:05:04;;;;;;;36.17;25.63;;;;;;;6.50;78.69;99777.75;5052165;28;20232;-81
2021/11/12 17:07:57;;;;;;;35.27;24.70;;;;;;;6.52;77.75;99783.72;5079269;28;20320;-83
2021/11/12 17:48:07;;;;;;;33.10;26.03;;;;;;;5.46;80.04;99767.47;5050457;28;20240;-80
2021/11/12 17:50:55;;;;;;;30.23;23.63;;;;;;;5.39;79.88;99759.41;5063197;28;20229;-80
2021/11/12 18:04:18;;;;;;;32.40;23.43;;;;;;;5.30;80.54;99765.81;5046802;28;20229;-80
2021/11/12 18:06:59;;;;;;;32.23;23.47;;;;;;;5.30;80.85;99757.84;5046254;28;20257;-81
2021/11/12 18:22:51;;;;;;;34.07;23.87;;;;;;;5.24;80.38;99737.31;5045884;28;20218;-79
2021/11/12 21:45:10;;;;;;;23.70;16.13;;;;;;;3.52;79.71;99618.72;5086685;28;20292;-82
2021/11/12 21:47:39;;;;;;;22.33;15.53;;;;;;;3.44;79.37;99602.88;5075547;28;20213;-81
2021/11/12 21:50:09;;;;;;;20.43;15.27;;;;;;;3.40;79.56;99601.59;5066220;28;20239;-82
2021/11/12 21:52:40;;;;;;;22.93;15.83;;;;;;;3.34;79.70;99610.22;5078590;28;20228;-83
2021/11/12 21:55:07;;;;;;;19.80;15.13;;;;;;;3.24;80.00;99612.25;5074116;28;20913;-83